createdAt,value
2018-11-10T00:00:51.096Z,39.57
2018-11-10T00:03:21.257Z,35.30
2018-11-10T00:05:49.026Z,38.90
2018-11-10T00:08:17.074Z,45.60
2018-11-10T00:10:45.705Z,36.77
2018-11-10T00:13:13.968Z,38.20
2018-11-10T00:15:43.740Z,42.23
2018-11-10T00:18:11.999Z,39.57
2018-11-10T00:20:40.238Z,40.17
2018-11-10T00:23:08.635Z,40.40
2018-11-10T00:25:36.415Z,42.30
2018-11-10T00:28:04.172Z,41.80
2018-11-10T00:30:31.756Z,43.47
2018-11-10T00:33:05.663Z,41.20
2018-11-10T00:35:33.322Z,47.07
2018-11-10T00:38:02.257Z,43.40
2018-11-10T00:40:29.940Z,44.93
2018-11-10T00:42:57.722Z,37.87
2018-11-10T00:45:25.365Z,48.70
2018-11-10T00:47:52.993Z,47.27
2018-11-10T00:50:20.888Z,32.70
2018-11-10T00:52:49.687Z,39.23
2018-11-10T00:55:17.347Z,39.07
2018-11-10T00:57:44.992Z,38.07
2018-11-10T01:00:13.868Z,38.40
2018-11-10T01:02:42.766Z,36.17
2018-11-10T01:05:10.475Z,37.03
2018-11-10T01:07:38.528Z,39.20
2018-11-10T01:10:07.945Z,36.10
2018-11-10T01:12:35.605Z,42.17
2018-11-10T01:15:03.346Z,40.33
2018-11-10T01:17:30.941Z,39.37
2018-11-10T01:19:58.601Z,37.83
2018-11-10T01:22:26.759Z,37.53
2018-11-10T01:24:54.597Z,40.57
2018-11-10T01:27:22.601Z,37.83
2018-11-10T01:29:50.209Z,42.43
2018-11-10T01:32:17.867Z,43.97
2018-11-10T01:34:45.444Z,40.90
2018-11-10T01:37:13.642Z,38.10
2018-11-10T01:39:41.361Z,34.53
2018-11-10T01:42:08.993Z,33.47
2018-11-10T01:44:36.661Z,35.40
2018-11-10T01:47:04.316Z,37.53
2018-11-10T01:49:31.953Z,37.07
2018-11-10T01:51:59.584Z,37.57
2018-11-10T01:54:27.190Z,30.50
2018-11-10T01:56:54.767Z,34.13
2018-11-10T01:59:22.433Z,33.83
2018-11-10T02:01:50.054Z,31.10
2018-11-10T02:04:25.252Z,33.83
2018-11-10T02:06:52.912Z,32.40
2018-11-10T02:09:20.595Z,33.93
2018-11-10T02:11:48.208Z,33.17
2018-11-10T02:14:15.861Z,35.10
2018-11-10T02:16:43.500Z,37.47
2018-11-10T02:19:11.126Z,31.30
2018-11-10T02:21:38.752Z,33.73
2018-11-10T02:24:06.425Z,40.13
2018-11-10T02:26:34.121Z,39.87
2018-11-10T02:29:01.779Z,32.23
2018-11-10T02:31:29.378Z,34.70
2018-11-10T02:33:57.029Z,34.80
2018-11-10T02:36:24.678Z,36.77
2018-11-10T02:38:52.469Z,39.37
2018-11-10T02:41:20.000Z,40.40
2018-11-10T02:43:47.684Z,39.77
2018-11-10T02:46:15.330Z,36.47
2018-11-10T02:48:42.948Z,41.53
2018-11-10T02:51:10.561Z,38.00
2018-11-10T02:53:38.230Z,37.03
2018-11-10T02:56:05.917Z,40.80
2018-11-10T02:58:33.557Z,37.60
2018-11-10T03:01:01.144Z,40.13
2018-11-10T03:03:28.768Z,40.27
2018-11-10T03:05:56.429Z,31.50
2018-11-10T03:08:24.124Z,34.17
2018-11-10T03:10:51.887Z,38.97
2018-11-10T03:13:19.710Z,35.67
2018-11-10T03:15:47.565Z,38.07
2018-11-10T03:18:15.669Z,39.37
2018-11-10T03:20:43.575Z,32.60
2018-11-10T03:23:12.286Z,40.17
2018-11-10T03:25:40.547Z,35.70
2018-11-10T03:28:08.578Z,35.17
2018-11-10T03:30:36.858Z,38.57
2018-11-10T03:33:05.682Z,37.30
2018-11-10T03:35:34.329Z,35.37
2018-11-10T03:38:02.797Z,30.73
2018-11-10T03:40:30.618Z,30.97
2018-11-10T03:42:58.589Z,32.97
2018-11-10T03:45:26.274Z,33.60
2018-11-10T03:47:54.096Z,33.50
2018-11-10T03:50:22.034Z,38.80
2018-11-10T03:52:50.094Z,34.20
2018-11-10T03:55:17.893Z,36.00
2018-11-10T03:57:46.329Z,38.50
2018-11-10T04:00:15.606Z,33.20
2018-11-10T04:02:45.070Z,29.17
2018-11-10T04:05:13.463Z,36.43
2018-11-10T04:07:43.273Z,30.77
2018-11-10T04:10:11.683Z,33.37
2018-11-10T04:12:39.891Z,27.63
2018-11-10T04:15:08.078Z,33.67
2018-11-10T04:17:36.533Z,27.10
2018-11-10T04:20:06.116Z,29.60
2018-11-10T04:22:36.113Z,33.90
2018-11-10T04:25:05.475Z,30.27
2018-11-10T04:27:33.735Z,29.40
2018-11-10T04:30:02.581Z,33.53
2018-11-10T04:32:30.674Z,31.07
2018-11-10T04:34:58.512Z,31.70
2018-11-10T04:37:26.821Z,29.00
2018-11-10T04:39:54.708Z,34.63
2018-11-10T04:42:22.457Z,30.50
2018-11-10T04:44:50.250Z,35.13
2018-11-10T04:47:18.649Z,28.30
2018-11-10T04:49:46.569Z,30.13
2018-11-10T04:52:14.420Z,35.33
2018-11-10T04:54:42.741Z,30.80
2018-11-10T04:57:11.026Z,32.60
2018-11-10T04:59:39.264Z,30.60
2018-11-10T05:02:07.079Z,28.10
2018-11-10T05:04:34.856Z,31.30
2018-11-10T05:07:02.510Z,30.17
2018-11-10T05:09:30.154Z,33.47
2018-11-10T05:11:57.792Z,32.80
2018-11-10T05:14:26.039Z,34.60
2018-11-10T05:16:53.739Z,33.13
2018-11-10T05:19:21.480Z,31.40
2018-11-10T05:21:49.465Z,33.10
2018-11-10T05:24:17.215Z,30.93
2018-11-10T05:26:45.414Z,32.27
2018-11-10T05:29:13.257Z,29.30
2018-11-10T05:31:41.491Z,30.97
2018-11-10T05:34:10.161Z,33.33
2018-11-10T05:36:38.753Z,35.50
2018-11-10T05:39:08.369Z,34.03
2018-11-10T05:41:36.529Z,33.13
2018-11-10T05:44:04.854Z,34.70
2018-11-10T05:46:33.387Z,34.90
2018-11-10T05:49:01.853Z,29.67
2018-11-10T05:51:30.230Z,33.47
2018-11-10T05:53:59.217Z,39.47
2018-11-10T05:56:27.478Z,31.47
2018-11-10T05:58:55.645Z,33.20
2018-11-10T06:01:24.329Z,34.80
2018-11-10T06:03:52.491Z,34.60
2018-11-10T06:06:20.987Z,33.20
2018-11-10T06:08:48.837Z,30.80
2018-11-10T06:11:16.657Z,36.93
2018-11-10T06:13:44.471Z,32.60
2018-11-10T06:16:12.249Z,33.10
2018-11-10T06:18:40.205Z,30.40
2018-11-10T06:21:07.879Z,30.00
2018-11-10T06:23:35.690Z,32.53
2018-11-10T06:26:03.581Z,25.67
2018-11-10T06:28:31.333Z,31.47
2018-11-10T06:30:59.454Z,28.97
2018-11-10T06:33:27.160Z,30.33
2018-11-10T06:35:54.945Z,32.90
2018-11-10T06:38:22.801Z,31.77
2018-11-10T06:40:50.589Z,28.20
2018-11-10T06:43:18.352Z,34.77
2018-11-10T06:45:46.376Z,31.93
2018-11-10T06:48:14.322Z,29.30
2018-11-10T06:50:42.075Z,30.67
2018-11-10T06:53:09.905Z,27.90
2018-11-10T06:55:38.151Z,33.67
2018-11-10T06:58:06.348Z,29.10
2018-11-10T07:00:34.915Z,31.27
2018-11-10T07:03:03.332Z,30.23
2018-11-10T07:05:31.893Z,30.90
2018-11-10T07:08:00.072Z,34.77
2018-11-10T07:10:29.673Z,33.13
2018-11-10T07:12:57.564Z,24.50
2018-11-10T07:15:25.332Z,28.83
2018-11-10T07:17:53.754Z,33.87
2018-11-10T07:20:21.653Z,31.03
2018-11-10T07:22:49.710Z,30.63
2018-11-10T07:25:17.721Z,34.23
2018-11-10T07:27:56.259Z,32.63
2018-11-10T07:30:23.981Z,32.17
2018-11-10T07:32:51.648Z,30.67
2018-11-10T07:35:19.331Z,30.87
2018-11-10T07:37:47.051Z,28.73
2018-11-10T07:40:14.728Z,33.20
2018-11-10T07:42:42.421Z,32.40
2018-11-10T07:45:13.149Z,34.50
2018-11-10T07:47:41.546Z,27.50
2018-11-10T07:50:10.125Z,27.57
2018-11-10T07:52:38.354Z,35.10
2018-11-10T07:55:06.975Z,30.10
2018-11-10T07:57:34.618Z,30.73
2018-11-10T08:00:02.405Z,29.80
2018-11-10T08:02:30.053Z,29.60
2018-11-10T08:04:57.825Z,29.33
2018-11-10T08:07:29.116Z,26.87
2018-11-10T08:09:56.748Z,29.60
2018-11-10T08:12:24.413Z,26.80
2018-11-10T08:14:52.092Z,31.30
2018-11-10T08:17:20.081Z,25.03
2018-11-10T08:19:47.901Z,28.20
2018-11-10T08:22:15.597Z,30.13
2018-11-10T08:24:43.284Z,29.83
2018-11-10T08:27:10.969Z,27.23
2018-11-10T08:29:39.025Z,29.33
2018-11-10T08:32:07.077Z,27.07
2018-11-10T08:34:35.180Z,24.50
2018-11-10T08:37:03.339Z,25.47
2018-11-10T08:39:31.258Z,27.30
2018-11-10T08:41:59.226Z,28.73
2018-11-10T08:44:26.961Z,24.67
2018-11-10T08:46:54.728Z,32.40
2018-11-10T08:49:22.613Z,27.40
2018-11-10T08:51:50.542Z,31.13
2018-11-10T08:54:18.571Z,27.97
2018-11-10T08:56:46.414Z,28.37
2018-11-10T08:59:14.639Z,30.70
2018-11-10T09:01:42.264Z,25.30
2018-11-10T09:04:13.084Z,30.67
2018-11-10T09:06:44.848Z,30.93
2018-11-10T09:09:14.750Z,29.57
2018-11-10T09:11:42.497Z,32.83
2018-11-10T09:16:47.783Z,27.90
2018-11-10T09:19:15.525Z,24.63
2018-11-10T09:21:43.286Z,30.70
2018-11-10T09:24:11.037Z,27.27
2018-11-10T09:26:38.992Z,28.90
2018-11-10T09:29:07.019Z,24.63
2018-11-10T09:31:35.301Z,26.77
2018-11-10T09:34:03.177Z,29.33
2018-11-10T09:36:31.055Z,21.70
2018-11-10T09:38:58.771Z,23.60
2018-11-10T09:41:26.637Z,19.77
2018-11-10T09:43:54.669Z,22.97
2018-11-10T09:46:22.674Z,23.30
2018-11-10T09:48:51.581Z,22.07
2018-11-10T09:51:19.389Z,19.60
2018-11-10T09:53:47.276Z,21.43
2018-11-10T09:56:14.957Z,16.97
2018-11-10T09:58:42.623Z,22.20
2018-11-10T10:01:10.445Z,18.03
2018-11-10T10:03:39.741Z,19.97
2018-11-10T10:06:07.609Z,22.23
2018-11-10T10:08:39.629Z,19.33
2018-11-10T10:11:09.192Z,21.57
2018-11-10T10:13:36.916Z,18.47
2018-11-10T10:16:04.986Z,19.40
2018-11-10T10:18:33.223Z,19.67
2018-11-10T10:21:13.353Z,15.83
2018-11-10T10:23:43.087Z,17.30
2018-11-10T10:26:12.342Z,16.63
2018-11-10T10:28:40.309Z,16.43
2018-11-10T10:31:08.793Z,18.40
2018-11-10T10:33:40.653Z,18.80
2018-11-10T10:36:13.562Z,16.27
2018-11-10T10:38:41.286Z,19.33
2018-11-10T10:41:09.538Z,18.40
2018-11-10T10:43:37.169Z,20.50
2018-11-10T10:46:04.828Z,16.70
2018-11-10T10:48:36.510Z,18.60
2018-11-10T10:51:05.333Z,17.83
2018-11-10T10:53:33.359Z,14.63
2018-11-10T10:56:01.070Z,19.37
2018-11-10T10:58:28.673Z,15.43
2018-11-10T11:01:01.973Z,17.90
2018-11-10T11:03:35.289Z,15.43
2018-11-10T11:06:02.969Z,16.33
2018-11-10T11:08:30.745Z,16.63
2018-11-10T11:10:58.433Z,15.93
2018-11-10T11:13:26.093Z,14.93
2018-11-10T11:15:53.811Z,16.90
2018-11-10T11:18:21.491Z,16.30
2018-11-10T11:20:49.268Z,17.30
2018-11-10T11:23:17.940Z,16.83
2018-11-10T11:25:45.657Z,17.23
2018-11-10T11:28:13.299Z,19.00
2018-11-10T11:30:47.065Z,16.67
2018-11-10T11:33:14.827Z,15.07
2018-11-10T11:35:42.481Z,21.23
2018-11-10T11:38:10.143Z,16.60
2018-11-10T11:40:43.685Z,19.10
2018-11-10T11:43:11.292Z,17.20
2018-11-10T11:45:39.033Z,17.47
2018-11-10T11:48:07.089Z,16.30
2018-11-10T11:50:34.906Z,17.27
2018-11-10T11:53:02.608Z,17.23
2018-11-10T11:55:30.360Z,16.40
2018-11-10T11:57:58.187Z,16.93
2018-11-10T12:00:31.919Z,18.00
2018-11-10T12:02:59.884Z,18.27
2018-11-10T12:05:27.875Z,17.83
2018-11-10T12:07:55.721Z,17.67
2018-11-10T12:10:30.924Z,16.40
2018-11-10T12:12:59.413Z,19.87
2018-11-10T12:15:28.896Z,16.30
2018-11-10T12:17:57.084Z,14.53
2018-11-10T12:20:26.661Z,17.90
2018-11-10T12:22:55.274Z,17.03
2018-11-10T12:25:24.153Z,17.10
2018-11-10T12:27:52.491Z,16.40
2018-11-10T12:30:23.609Z,15.70
2018-11-10T12:32:58.483Z,17.10
2018-11-10T12:35:27.069Z,23.03
2018-11-10T12:37:55.258Z,18.10
2018-11-10T12:40:23.127Z,25.43
2018-11-10T12:42:51.009Z,19.23
2018-11-10T12:45:26.330Z,16.20
2018-11-10T12:47:57.420Z,17.77
2018-11-10T12:50:25.341Z,17.47
2018-11-10T12:52:53.657Z,16.70
2018-11-10T12:55:23.820Z,16.30
2018-11-10T12:57:59.286Z,16.03
2018-11-10T13:00:30.873Z,16.63
2018-11-10T13:03:00.059Z,15.40
2018-11-10T13:05:28.908Z,17.47
2018-11-10T13:07:58.018Z,18.20
2018-11-10T13:10:29.545Z,21.10
2018-11-10T13:12:57.845Z,17.77
2018-11-10T13:15:25.619Z,13.90
2018-11-10T13:17:53.502Z,14.67
2018-11-10T13:20:21.725Z,13.47
2018-11-10T13:22:51.747Z,15.63
2018-11-10T13:25:19.937Z,17.23
2018-11-10T13:27:47.625Z,17.00
2018-11-10T13:30:16.097Z,16.57
2018-11-10T13:32:44.101Z,16.07
2018-11-10T13:35:12.364Z,18.27
2018-11-10T13:37:40.037Z,16.70
2018-11-10T13:40:09.156Z,13.60
2018-11-10T13:42:37.068Z,16.53
2018-11-10T13:45:06.782Z,14.57
2018-11-10T13:47:45.257Z,16.63
2018-11-10T13:50:25.323Z,14.23
2018-11-10T13:52:53.305Z,15.20
2018-11-10T13:55:20.764Z,16.90
2018-11-10T13:57:54.372Z,14.00
2018-11-10T14:00:24.775Z,11.87
2018-11-10T14:02:53.832Z,15.07
2018-11-10T14:05:21.601Z,18.27
2018-11-10T14:07:49.475Z,15.10
2018-11-10T14:10:17.744Z,14.87
2018-11-10T14:12:46.241Z,12.40
2018-11-10T14:15:14.630Z,13.27
2018-11-10T14:17:42.741Z,13.30
2018-11-10T14:20:13.274Z,14.80
2018-11-10T14:22:41.064Z,16.23
2018-11-10T14:25:10.908Z,17.23
2018-11-10T14:27:39.601Z,14.23
2018-11-10T14:30:09.502Z,14.60
2018-11-10T14:32:37.390Z,16.43
2018-11-10T14:35:06.067Z,15.63
2018-11-10T14:37:33.913Z,19.47
2018-11-10T14:40:01.617Z,20.33
2018-11-10T14:42:29.481Z,19.97
2018-11-10T14:44:59.378Z,24.83
2018-11-10T14:47:27.042Z,19.77
2018-11-10T14:50:01.750Z,19.53
2018-11-10T14:52:29.782Z,18.30
2018-11-10T14:54:57.644Z,18.10
2018-11-10T14:57:25.604Z,16.50
2018-11-10T14:59:53.498Z,68.50
2018-11-10T15:02:21.426Z,23.10
2018-11-10T15:04:49.201Z,43.63
2018-11-10T15:07:16.849Z,28.70
2018-11-10T15:09:44.746Z,35.70
2018-11-10T15:12:12.654Z,19.70
2018-11-10T15:14:40.390Z,17.70
2018-11-10T15:17:08.149Z,21.57
2018-11-10T15:19:36.065Z,21.03
2018-11-10T15:22:04.158Z,16.47
2018-11-10T15:24:32.121Z,21.70
2018-11-10T15:27:02.093Z,23.80
2018-11-10T15:29:30.042Z,19.77
2018-11-10T15:31:58.780Z,19.60
2018-11-10T15:34:26.478Z,24.53
2018-11-10T15:36:54.321Z,15.83
2018-11-10T15:39:22.067Z,18.37
2018-11-10T15:41:49.843Z,17.53
2018-11-10T15:44:17.664Z,19.90
2018-11-10T15:46:45.525Z,15.60
2018-11-10T15:49:13.312Z,20.70
2018-11-10T15:51:42.221Z,16.03
2018-11-10T15:54:10.514Z,17.87
2018-11-10T15:56:38.289Z,15.90
2018-11-10T15:59:06.365Z,18.03
2018-11-10T16:01:34.084Z,20.53
2018-11-10T16:04:01.897Z,21.57
2018-11-10T16:15:48.071Z,18.77
2018-11-10T16:18:24.601Z,19.30
2018-11-10T16:26:32.335Z,18.20
2018-11-10T16:29:15.825Z,20.27
2018-11-10T16:31:53.775Z,22.13
2018-11-10T16:55:42.065Z,23.17
2018-11-10T16:58:11.185Z,24.57
2018-11-10T17:00:41.042Z,22.87
2018-11-10T17:03:10.563Z,19.10
2018-11-10T17:08:23.868Z,21.97
2018-11-10T17:10:53.942Z,24.70
2018-11-10T17:13:22.396Z,21.90
2018-11-10T17:15:50.867Z,24.70
2018-11-10T17:18:23.813Z,20.73
2018-11-10T17:20:52.069Z,23.73
2018-11-10T17:23:19.956Z,25.53
2018-11-10T17:25:49.077Z,24.10
2018-11-10T17:28:17.462Z,28.27
2018-11-10T17:30:46.403Z,24.87
2018-11-10T17:33:15.081Z,29.30
2018-11-10T17:35:44.063Z,32.10
2018-11-10T17:38:14.598Z,29.20
2018-11-10T17:40:43.176Z,28.77
2018-11-10T17:43:13.087Z,25.80
2018-11-10T17:45:42.262Z,27.50
2018-11-10T17:48:11.005Z,23.70
2018-11-10T17:50:39.391Z,24.63
2018-11-10T17:53:07.682Z,25.47
2018-11-10T17:55:35.665Z,26.93
2018-11-10T17:58:03.674Z,26.20
2018-11-10T18:00:33.729Z,23.10
2018-11-10T18:03:01.542Z,27.37
2018-11-10T18:05:29.674Z,25.20
2018-11-10T18:07:57.745Z,24.40
2018-11-10T18:10:26.552Z,28.70
2018-11-10T18:12:55.041Z,26.70
2018-11-10T18:15:24.127Z,26.20
2018-11-10T18:17:59.005Z,26.67
2018-11-10T18:20:26.794Z,29.50
2018-11-10T18:22:59.085Z,27.30
2018-11-10T18:25:28.335Z,25.10
2018-11-10T18:27:58.580Z,27.40
2018-11-10T18:33:14.835Z,26.50
2018-11-10T18:35:44.222Z,26.87
2018-11-10T18:38:13.706Z,30.20
2018-11-10T18:40:43.473Z,29.60
2018-11-10T18:43:21.750Z,28.77
2018-11-10T18:45:51.941Z,29.53
2018-11-10T18:48:20.102Z,30.37
2018-11-10T18:50:51.370Z,30.93
2018-11-10T18:53:19.319Z,24.40
2018-11-10T18:55:52.679Z,30.63
2018-11-10T18:58:20.741Z,28.70
2018-11-10T19:00:53.328Z,31.37
2018-11-10T19:03:25.724Z,25.17
2018-11-10T19:06:06.542Z,26.50
2018-11-10T19:08:35.866Z,24.77
2018-11-10T19:11:11.061Z,26.87
2018-11-10T19:13:39.330Z,26.47
2018-11-10T19:16:07.858Z,27.23
2018-11-10T19:18:37.623Z,24.40
2018-11-10T19:21:11.663Z,27.27
2018-11-10T19:23:42.162Z,30.10
2018-11-10T19:26:10.825Z,23.97
2018-11-10T19:28:40.686Z,27.50
2018-11-10T19:31:08.897Z,27.00
2018-11-10T19:33:37.044Z,23.83
2018-11-10T19:36:18.885Z,25.17
2018-11-10T19:38:46.882Z,23.47
2018-11-10T19:41:15.048Z,22.13
2018-11-10T19:43:43.979Z,23.77
2018-11-10T19:46:12.258Z,23.17
2018-11-10T19:51:24.274Z,25.87
2018-11-10T19:53:54.858Z,30.03
2018-11-10T19:56:23.222Z,25.03
2018-11-10T19:58:51.543Z,26.23
2018-11-10T20:01:22.745Z,23.90
2018-11-10T20:03:53.416Z,24.43
2018-11-10T20:06:23.525Z,21.90
2018-11-10T20:08:55.131Z,23.70
2018-11-10T20:11:25.351Z,23.23
2018-11-10T20:13:54.632Z,22.80
2018-11-10T20:16:25.703Z,22.50
2018-11-10T20:18:54.452Z,22.37
2018-11-10T20:21:28.578Z,26.30
2018-11-10T20:23:58.396Z,25.97
2018-11-10T20:26:27.557Z,22.20
2018-11-10T20:28:56.967Z,23.67
2018-11-10T20:31:26.949Z,24.80
2018-11-10T20:33:57.133Z,23.53
2018-11-10T20:36:25.674Z,25.50
2018-11-10T20:38:55.424Z,21.27
2018-11-10T20:41:23.496Z,21.00
2018-11-10T20:43:56.362Z,19.70
2018-11-10T20:46:28.080Z,20.83
2018-11-10T20:48:56.955Z,23.00
2018-11-10T20:51:26.230Z,28.67
2018-11-10T20:54:09.687Z,19.73
2018-11-10T20:59:25.225Z,24.10
2018-11-10T21:01:58.650Z,24.80
2018-11-10T21:04:29.284Z,21.17
2018-11-10T21:07:06.364Z,21.63
2018-11-10T21:09:37.377Z,23.83
2018-11-10T21:12:12.323Z,23.20
2018-11-10T21:14:41.186Z,23.67
2018-11-10T21:17:11.707Z,22.10
2018-11-10T21:19:41.296Z,23.00
2018-11-10T21:25:01.207Z,25.00
2018-11-10T21:27:34.582Z,19.47
2018-11-10T21:30:16.828Z,21.97
2018-11-10T21:33:07.087Z,19.73
2018-11-10T21:35:45.234Z,23.40
2018-11-10T21:38:20.968Z,20.47
2018-11-10T21:41:05.480Z,21.30
2018-11-10T21:43:51.131Z,25.00
2018-11-10T21:46:35.084Z,21.00
2018-11-10T21:52:12.936Z,22.00
2018-11-10T21:57:29.496Z,23.63
2018-11-10T22:02:53.695Z,24.33
2018-11-10T22:05:32.476Z,20.93
2018-11-10T22:10:55.297Z,18.77
2018-11-10T22:13:29.442Z,17.97
2018-11-10T22:19:04.844Z,17.50
2018-11-10T22:26:54.220Z,19.57
2018-11-10T22:29:26.847Z,18.27
2018-11-10T22:31:56.288Z,19.13
2018-11-10T22:34:26.953Z,18.03
2018-11-10T22:36:58.930Z,17.53
2018-11-10T22:39:29.210Z,20.10
2018-11-10T22:44:45.459Z,20.77
2018-11-10T22:47:22.893Z,21.63
2018-11-10T22:52:55.804Z,22.13
2018-11-10T22:55:34.996Z,20.13
2018-11-10T22:58:03.253Z,20.83
2018-11-10T23:00:41.296Z,22.17
2018-11-10T23:08:34.338Z,17.40
2018-11-10T23:14:07.082Z,23.50
2018-11-10T23:19:30.383Z,26.47
2018-11-10T23:22:09.472Z,23.37
2018-11-10T23:24:54.801Z,22.33
2018-11-10T23:27:34.245Z,24.50
2018-11-10T23:30:21.481Z,22.73
2018-11-10T23:33:04.209Z,23.67
2018-11-10T23:35:41.083Z,25.07
2018-11-10T23:38:27.164Z,24.70
2018-11-10T23:43:37.297Z,21.50
2018-11-10T23:46:08.086Z,23.80
2018-11-10T23:48:38.022Z,22.70
2018-11-10T23:51:09.471Z,22.20
2018-11-10T23:53:39.823Z,25.70
2018-11-10T23:56:09.504Z,24.27
2018-11-10T23:58:40.543Z,22.83
